createdAt,value
2022-10-15T00:00:36.347Z,99954.13
2022-10-15T00:02:48.509Z,99966.41
2022-10-15T00:05:01.274Z,99967.34
2022-10-15T00:07:13.686Z,99954.25
2022-10-15T00:09:15.758Z,99960.41
2022-10-15T00:11:20.959Z,99960.44
2022-10-15T00:13:23.274Z,99960.47
2022-10-15T00:15:25.988Z,99969.22
2022-10-15T00:17:39.787Z,99974.41
2022-10-15T00:19:51.621Z,99964.81
2022-10-15T00:22:05.275Z,99959.59
2022-10-15T00:24:17.979Z,99973.47
2022-10-15T00:26:25.746Z,99950.91
2022-10-15T00:28:31.863Z,99970.13
2022-10-15T00:30:36.566Z,99960.56
2022-10-15T00:32:48.593Z,99958.06
2022-10-15T00:35:01.226Z,99970.25
2022-10-15T00:37:13.821Z,99968.50
2022-10-15T00:39:17.478Z,99957.16
2022-10-15T00:41:25.888Z,99970.38
2022-10-15T00:43:50.866Z,99977.34
2022-10-15T00:45:54.317Z,99952.91
2022-10-15T00:47:56.704Z,99957.34
2022-10-15T00:49:58.761Z,99967.81
2022-10-15T00:52:10.895Z,99959.94
2022-10-15T00:54:14.803Z,99953.81
2022-10-15T00:56:21.162Z,99964.34
2022-10-15T00:58:28.519Z,99960.84
2022-10-15T01:00:31.370Z,99963.53
2022-10-15T01:02:34.781Z,99980.06
2022-10-15T01:04:37.867Z,99971.34
2022-10-15T01:06:40.949Z,99971.31
2022-10-15T01:08:45.208Z,99979.22
2022-10-15T01:10:53.302Z,99974.00
2022-10-15T01:13:01.682Z,99968.78
2022-10-15T01:15:08.602Z,99973.13
2022-10-15T01:17:19.590Z,99977.47
2022-10-15T01:19:40.641Z,99969.66
2022-10-15T01:21:59.127Z,99972.25
2022-10-15T01:24:28.650Z,99971.41
2022-10-15T01:26:33.279Z,99969.66
2022-10-15T01:28:47.677Z,99978.34
2022-10-15T01:31:02.652Z,99972.19
2022-10-15T01:33:16.268Z,99966.88
2022-10-15T01:35:25.406Z,99984.44
2022-10-15T01:37:41.366Z,99962.66
2022-10-15T01:39:51.725Z,99962.56
2022-10-15T01:41:58.679Z,99976.56
2022-10-15T01:44:11.342Z,99978.34
2022-10-15T01:46:47.166Z,99983.47
2022-10-15T01:48:58.290Z,99982.66
2022-10-15T01:51:04.990Z,99988.69
2022-10-15T01:53:10.298Z,99985.19
2022-10-15T01:55:16.662Z,99991.28
2022-10-15T01:57:21.645Z,99981.66
2022-10-15T01:59:28.177Z,99967.69
2022-10-15T02:01:30.480Z,99992.16
2022-10-15T02:03:32.782Z,99998.22
2022-10-15T02:05:48.592Z,99985.16
2022-10-15T02:08:15.351Z,99984.28
2022-10-15T02:10:59.954Z,99985.16
2022-10-15T02:13:45.920Z,99991.28
2022-10-15T02:16:11.017Z,99989.59
2022-10-15T02:18:44.139Z,99981.69
2022-10-15T02:20:59.813Z,100003.44
2022-10-15T02:23:05.819Z,99995.66
2022-10-15T02:25:14.338Z,99998.22
2022-10-15T02:27:18.400Z,99995.66
2022-10-15T02:29:25.223Z,99976.47
2022-10-15T02:31:32.099Z,99984.28
2022-10-15T02:33:36.054Z,100005.28
2022-10-15T02:35:39.077Z,99996.59
2022-10-15T02:37:47.602Z,100001.78
2022-10-15T02:39:53.760Z,99974.59
2022-10-15T02:41:57.712Z,100001.81
2022-10-15T02:44:00.867Z,100014.84
2022-10-15T02:46:03.416Z,100008.75
2022-10-15T02:48:06.357Z,100002.59
2022-10-15T02:50:09.398Z,100013.09
2022-10-15T02:52:11.706Z,100009.63
2022-10-15T02:54:15.061Z,100007.78
2022-10-15T02:56:17.255Z,100001.75
2022-10-15T02:58:19.473Z,100013.09
2022-10-15T03:00:21.841Z,100017.50
2022-10-15T03:02:24.427Z,100006.16
2022-10-15T03:04:27.731Z,100011.38
2022-10-15T03:06:30.192Z,100006.16
2022-10-15T03:08:32.490Z,100015.78
2022-10-15T03:10:36.655Z,100019.31
2022-10-15T03:12:39.544Z,100004.38
2022-10-15T03:14:41.668Z,100007.09
2022-10-15T03:16:43.972Z,100017.56
2022-10-15T03:18:47.044Z,100017.53
2022-10-15T03:20:56.203Z,100028.94
2022-10-15T03:22:58.652Z,100017.53
2022-10-15T03:25:00.775Z,100026.25
2022-10-15T03:27:06.077Z,100021.09
2022-10-15T03:29:08.257Z,100020.22
2022-10-15T03:31:17.194Z,100023.72
2022-10-15T03:33:25.033Z,100022.84
2022-10-15T03:35:28.962Z,100024.59
2022-10-15T03:37:31.743Z,100004.53
2022-10-15T03:39:34.174Z,99998.47
2022-10-15T03:41:40.598Z,100021.25
2022-10-15T03:43:43.466Z,100003.78
2022-10-15T03:45:47.103Z,100017.00
2022-10-15T03:47:54.275Z,100016.09
2022-10-15T03:49:58.066Z,100012.63
2022-10-15T03:52:03.470Z,100005.72
2022-10-15T03:54:05.744Z,100023.16
2022-10-15T03:56:14.577Z,100004.75
2022-10-15T03:58:16.886Z,100019.69
2022-10-15T04:00:27.448Z,100005.69
2022-10-15T04:02:33.456Z,100022.31
2022-10-15T04:04:35.671Z,100012.66
2022-10-15T04:06:38.032Z,100018.84
2022-10-15T04:08:43.708Z,100011.88
2022-10-15T04:11:02.280Z,100024.09
2022-10-15T04:13:04.555Z,100017.94
2022-10-15T04:15:09.124Z,100028.44
2022-10-15T04:17:14.621Z,100027.59
2022-10-15T04:19:20.305Z,100026.81
2022-10-15T04:21:33.052Z,100031.16
2022-10-15T04:23:38.161Z,100021.56
2022-10-15T04:26:12.694Z,100017.16
2022-10-15T04:28:17.446Z,100024.25
2022-10-15T04:30:21.721Z,100033.84
2022-10-15T04:32:29.727Z,100014.66
2022-10-15T04:34:32.129Z,100028.69
2022-10-15T04:36:34.996Z,100036.53
2022-10-15T04:39:05.303Z,100021.75
2022-10-15T04:41:12.525Z,100019.06
2022-10-15T04:43:37.895Z,100019.97
2022-10-15T04:45:42.965Z,100036.56
2022-10-15T04:47:46.202Z,100038.41
2022-10-15T04:49:50.100Z,100034.16
2022-10-15T04:52:21.631Z,100033.31
2022-10-15T04:54:28.344Z,100029.00
2022-10-15T04:56:36.779Z,100033.41
2022-10-15T04:58:39.264Z,100032.59
2022-10-15T05:00:41.517Z,100024.69
2022-10-15T05:03:09.825Z,100036.09
2022-10-15T05:05:18.584Z,100030.06
2022-10-15T05:07:31.322Z,100039.75
2022-10-15T05:09:36.978Z,100028.41
2022-10-15T05:11:40.385Z,100047.75
2022-10-15T05:13:47.797Z,100039.06
2022-10-15T05:15:50.072Z,100033.88
2022-10-15T05:17:53.928Z,100047.00
2022-10-15T05:19:57.299Z,100032.22
2022-10-15T05:22:02.844Z,100039.25
2022-10-15T05:24:07.002Z,100051.53
2022-10-15T05:26:35.259Z,100052.38
2022-10-15T05:28:38.209Z,100045.47
2022-10-15T05:30:41.164Z,100057.72
2022-10-15T05:32:43.537Z,100056.94
2022-10-15T05:34:47.871Z,100051.78
2022-10-15T05:36:51.653Z,100051.78
2022-10-15T05:38:58.765Z,100055.25
2022-10-15T05:41:01.565Z,100045.75
2022-10-15T05:43:03.915Z,100034.44
2022-10-15T05:45:06.861Z,100055.44
2022-10-15T05:47:12.606Z,100055.50
2022-10-15T05:49:16.606Z,100060.75
2022-10-15T05:51:28.963Z,100059.06
2022-10-15T05:53:37.903Z,100044.22
2022-10-15T05:55:43.125Z,100064.38
2022-10-15T05:57:45.307Z,100067.84
2022-10-15T05:59:47.907Z,100066.19
2022-10-15T06:01:51.458Z,100065.28
2022-10-15T06:03:56.759Z,100057.44
2022-10-15T06:05:59.005Z,100050.50
2022-10-15T06:08:01.135Z,100067.13
2022-10-15T06:10:05.941Z,100056.66
2022-10-15T06:12:11.137Z,100070.69
2022-10-15T06:14:15.661Z,100068.13
2022-10-15T06:16:23.760Z,100058.63
2022-10-15T06:18:26.639Z,100074.34
2022-10-15T06:20:41.192Z,100054.34
2022-10-15T06:22:53.122Z,100000.06
2022-10-15T06:24:56.582Z,100049.06
2022-10-15T06:27:01.015Z,100038.66
2022-10-15T06:29:03.333Z,100072.75
2022-10-15T06:31:07.497Z,100064.06
2022-10-15T06:35:13.807Z,100053.63
2022-10-15T06:37:16.099Z,100067.69
2022-10-15T06:39:18.306Z,100063.38
2022-10-15T06:41:26.894Z,100061.69
2022-10-15T06:43:31.135Z,100065.22
2022-10-15T06:45:37.151Z,100067.78
2022-10-15T06:47:45.040Z,100065.16
2022-10-15T06:49:47.611Z,100070.41
2022-10-15T06:51:49.895Z,100074.78
2022-10-15T06:53:52.009Z,100076.47
2022-10-15T06:56:12.570Z,100063.41
2022-10-15T06:58:17.529Z,100072.13
2022-10-15T07:00:19.742Z,100087.00
2022-10-15T07:02:25.105Z,100087.91
2022-10-15T07:04:28.650Z,100080.03
2022-10-15T07:06:30.763Z,100086.19
2022-10-15T07:08:33.561Z,100097.53
2022-10-15T07:10:35.714Z,100094.03
2022-10-15T07:12:37.889Z,100079.16
2022-10-15T07:14:42.350Z,100083.59
2022-10-15T07:16:44.990Z,100074.88
2022-10-15T07:18:47.990Z,100095.81
2022-10-15T07:20:50.231Z,100086.25
2022-10-15T07:23:00.028Z,100095.03
2022-10-15T07:25:05.584Z,100100.28
2022-10-15T07:27:08.317Z,100088.09
2022-10-15T07:29:20.692Z,100103.00
2022-10-15T07:31:23.717Z,100101.28
2022-10-15T07:33:25.854Z,100103.06
2022-10-15T07:35:34.728Z,100108.31
2022-10-15T07:37:37.008Z,100104.91
2022-10-15T07:39:41.051Z,100097.94
2022-10-15T07:41:43.953Z,100111.97
2022-10-15T07:43:46.114Z,100112.88
2022-10-15T07:45:49.461Z,100112.03
2022-10-15T07:47:52.957Z,100105.06
2022-10-15T07:49:55.330Z,100102.44
2022-10-15T07:51:57.310Z,100112.06
2022-10-15T07:54:00.025Z,100115.56
2022-10-15T07:56:10.525Z,100092.88
2022-10-15T07:58:12.663Z,100116.50
2022-10-15T08:00:15.040Z,100092.13
2022-10-15T08:02:19.225Z,100102.66
2022-10-15T08:04:21.365Z,100110.53
2022-10-15T08:06:24.893Z,100107.94
2022-10-15T08:08:27.070Z,100105.34
2022-10-15T08:10:57.121Z,100118.44
2022-10-15T08:13:11.907Z,100077.41
2022-10-15T08:15:14.125Z,100097.53
2022-10-15T08:17:16.262Z,100101.97
2022-10-15T08:19:18.573Z,100113.28
2022-10-15T08:21:20.826Z,100107.22
2022-10-15T08:23:22.800Z,100118.59
2022-10-15T08:25:29.386Z,100116.84
2022-10-15T08:27:34.553Z,100117.75
2022-10-15T08:29:39.285Z,100128.25
2022-10-15T08:31:41.839Z,100114.28
2022-10-15T08:33:46.150Z,100101.19
2022-10-15T08:35:48.293Z,100097.66
2022-10-15T08:37:54.355Z,100120.34
2022-10-15T08:39:56.601Z,100113.34
2022-10-15T08:42:05.872Z,100124.69
2022-10-15T08:44:24.050Z,100108.03
2022-10-15T08:46:36.337Z,100121.09
2022-10-15T08:48:46.120Z,100107.09
2022-10-15T08:51:10.539Z,100133.28
2022-10-15T08:53:16.285Z,100104.47
2022-10-15T08:55:20.506Z,100125.41
2022-10-15T08:57:36.043Z,100123.69
2022-10-15T08:59:58.936Z,100125.41
2022-10-15T09:02:08.350Z,100122.78
2022-10-15T09:04:41.306Z,100128.91
2022-10-15T09:06:44.048Z,100114.97
2022-10-15T09:08:48.853Z,100123.66
2022-10-15T09:10:55.408Z,100108.84
2022-10-15T09:12:57.520Z,100114.03
2022-10-15T09:15:01.102Z,100115.81
2022-10-15T09:17:14.733Z,100115.81
2022-10-15T09:19:22.419Z,100121.06
2022-10-15T09:21:28.083Z,100123.72
2022-10-15T09:23:30.683Z,100116.72
2022-10-15T09:25:36.528Z,100110.59
2022-10-15T09:27:47.613Z,100108.88
2022-10-15T09:29:58.561Z,100119.41
2022-10-15T09:32:22.049Z,100120.28
2022-10-15T09:34:39.961Z,100098.47
2022-10-15T09:37:14.902Z,100122.03
2022-10-15T09:39:28.047Z,100119.41
2022-10-15T09:41:50.576Z,100124.63
2022-10-15T09:43:57.941Z,100106.31
2022-10-15T09:46:05.389Z,100106.28
2022-10-15T09:48:18.895Z,100119.38
2022-10-15T09:50:21.178Z,100116.78
2022-10-15T09:52:55.838Z,100128.09
2022-10-15T09:55:03.690Z,100129.91
2022-10-15T09:57:10.658Z,100127.28
2022-10-15T09:59:23.200Z,100119.41
2022-10-15T10:01:26.408Z,100135.19
2022-10-15T10:03:33.513Z,100119.44
2022-10-15T10:05:37.574Z,100117.69
2022-10-15T10:07:42.125Z,100110.72
2022-10-15T10:09:57.234Z,100122.06
2022-10-15T10:12:11.079Z,100120.31
2022-10-15T10:14:34.531Z,100118.59
2022-10-15T10:17:08.898Z,100121.22
2022-10-15T10:19:15.684Z,100111.63
2022-10-15T10:21:26.642Z,100119.50
2022-10-15T10:23:39.533Z,100114.25
2022-10-15T10:25:42.947Z,100113.41
2022-10-15T10:27:46.047Z,100093.28
2022-10-15T10:30:01.642Z,100128.22
2022-10-15T10:32:21.582Z,100129.09
2022-10-15T10:34:33.479Z,100120.31
2022-10-15T10:36:39.456Z,100115.06
2022-10-15T10:39:15.399Z,100128.13
2022-10-15T10:41:18.050Z,100098.44
2022-10-15T10:43:27.992Z,100127.19
2022-10-15T10:45:30.253Z,100118.44
2022-10-15T10:47:38.409Z,100116.66
2022-10-15T10:49:58.247Z,100125.34
2022-10-15T10:52:00.556Z,100120.94
2022-10-15T10:54:05.850Z,100123.50
2022-10-15T10:56:14.642Z,100124.34
2022-10-15T10:58:26.263Z,100097.28
2022-10-15T11:00:55.814Z,100122.53
2022-10-15T11:02:58.023Z,100107.66
2022-10-15T11:05:00.151Z,100107.63
2022-10-15T11:07:24.182Z,100125.03
2022-10-15T11:09:29.932Z,100123.25
2022-10-15T11:11:49.285Z,100112.75
2022-10-15T11:14:20.005Z,100112.75
2022-10-15T11:16:32.438Z,100115.31
2022-10-15T11:19:06.290Z,100121.47
2022-10-15T11:21:46.251Z,100124.94
2022-10-15T11:23:51.098Z,100124.09
2022-10-15T11:26:11.488Z,100118.78
2022-10-15T11:28:28.430Z,100118.00
2022-10-15T11:30:35.176Z,100117.09
2022-10-15T11:33:07.334Z,100114.47
2022-10-15T11:35:53.366Z,100115.31
2022-10-15T11:38:34.020Z,100117.09
2022-10-15T11:40:45.762Z,100103.13
2022-10-15T11:42:58.893Z,100114.53
2022-10-15T11:45:26.387Z,100119.78
2022-10-15T11:47:53.197Z,100115.44
2022-10-15T11:50:16.811Z,100118.06
2022-10-15T11:52:37.818Z,100109.28
2022-10-15T11:55:02.634Z,100104.91
2022-10-15T11:57:11.893Z,100104.94
2022-10-15T11:59:35.327Z,100104.97
2022-10-15T12:01:43.941Z,100103.25
2022-10-15T12:04:02.596Z,100110.25
2022-10-15T12:06:17.270Z,100107.66
2022-10-15T12:08:33.003Z,100099.84
2022-10-15T12:11:13.507Z,100114.69
2022-10-15T12:13:41.695Z,100106.81
2022-10-15T12:16:12.735Z,100102.50
2022-10-15T12:18:23.359Z,100110.38
2022-10-15T12:20:27.438Z,100106.91
2022-10-15T12:22:38.812Z,100106.00
2022-10-15T12:24:50.418Z,100110.38
2022-10-15T12:26:52.838Z,100104.22
2022-10-15T12:28:59.428Z,100103.38
2022-10-15T12:31:06.609Z,100093.78
2022-10-15T12:33:29.074Z,100100.72
2022-10-15T12:35:38.635Z,100095.50
2022-10-15T12:37:43.704Z,100089.38
2022-10-15T12:39:52.625Z,100083.31
2022-10-15T12:41:56.267Z,100091.16
2022-10-15T12:44:09.016Z,100084.19
2022-10-15T12:46:13.819Z,100096.41
2022-10-15T12:48:16.568Z,100103.38
2022-10-15T12:50:24.918Z,100092.06
2022-10-15T12:52:55.191Z,100103.44
2022-10-15T12:55:32.282Z,100107.84
2022-10-15T12:57:34.762Z,100107.00
2022-10-15T12:59:46.093Z,100099.13
2022-10-15T13:01:52.272Z,100102.66
2022-10-15T13:03:56.416Z,100093.94
2022-10-15T13:06:15.223Z,100100.06
2022-10-15T13:08:26.147Z,100098.34
2022-10-15T13:10:35.183Z,100103.59
2022-10-15T13:12:37.482Z,100100.16
2022-10-15T13:14:48.579Z,100107.16
2022-10-15T13:16:51.092Z,100104.53
2022-10-15T13:18:57.302Z,100088.88
2022-10-15T13:23:31.981Z,100100.28
2022-10-15T13:25:34.406Z,100103.78
2022-10-15T13:27:37.885Z,100109.06
2022-10-15T13:29:40.084Z,100068.84
2022-10-15T13:31:45.171Z,100105.56
2022-10-15T13:33:56.004Z,100107.25
2022-10-15T13:36:06.994Z,100094.16
2022-10-15T13:38:22.010Z,100101.13
2022-10-15T13:40:30.897Z,100096.75
2022-10-15T13:42:46.689Z,100104.56
2022-10-15T13:45:18.783Z,100104.56
2022-10-15T13:47:39.907Z,100095.81
2022-10-15T13:49:42.018Z,100083.56
2022-10-15T13:51:48.073Z,100096.63
2022-10-15T13:53:50.680Z,100110.59
2022-10-15T13:55:55.609Z,100101.81
2022-10-15T13:58:05.383Z,100099.16
2022-10-15T14:00:19.198Z,100114.84
2022-10-15T14:02:21.623Z,100115.66
2022-10-15T14:04:24.257Z,100117.38
2022-10-15T14:06:27.717Z,100123.44
2022-10-15T14:08:35.532Z,100108.53
2022-10-15T14:10:37.765Z,100117.28
2022-10-15T14:12:39.819Z,100123.34
2022-10-15T14:14:48.241Z,100119.00
2022-10-15T14:16:50.869Z,100111.06
2022-10-15T14:18:56.824Z,100126.78
2022-10-15T14:21:00.321Z,100117.13
2022-10-15T14:23:02.566Z,100127.63
2022-10-15T14:25:09.299Z,100125.84
2022-10-15T14:27:12.971Z,100124.06
2022-10-15T14:29:37.282Z,100127.59
2022-10-15T14:31:41.338Z,100125.81
2022-10-15T14:33:44.614Z,100110.09
2022-10-15T14:36:03.068Z,100128.41
2022-10-15T14:38:16.560Z,100135.34
2022-10-15T14:40:20.703Z,100124.00
2022-10-15T14:42:37.415Z,100108.22
2022-10-15T14:44:48.214Z,100135.28
2022-10-15T14:46:58.896Z,100108.13
2022-10-15T14:49:01.402Z,100120.34
2022-10-15T14:51:06.771Z,100122.91
2022-10-15T14:53:16.235Z,100136.84
2022-10-15T14:55:24.646Z,100142.03
2022-10-15T14:57:31.336Z,100138.50
2022-10-15T14:59:37.490Z,100123.56
2022-10-15T15:01:40.062Z,100133.19
2022-10-15T15:03:47.847Z,100132.25
2022-10-15T15:05:55.993Z,100145.31
2022-10-15T15:08:00.874Z,100134.75
2022-10-15T15:10:08.866Z,100136.47
2022-10-15T15:12:17.680Z,100140.75
2022-10-15T15:14:27.198Z,100132.81
2022-10-15T15:16:29.646Z,100148.56
2022-10-15T15:18:31.740Z,100150.22
2022-10-15T15:20:33.852Z,100154.66
2022-10-15T15:22:36.608Z,100151.09
2022-10-15T15:24:38.992Z,100140.59
2022-10-15T15:26:40.879Z,100153.66
2022-10-15T15:28:43.142Z,100147.56
2022-10-15T15:30:45.328Z,100143.16
2022-10-15T15:32:48.388Z,100150.16
2022-10-15T15:34:52.600Z,100150.16
2022-10-15T15:36:54.676Z,100149.28
2022-10-15T15:38:58.995Z,100161.53
2022-10-15T15:41:04.357Z,100156.28
2022-10-15T15:43:06.589Z,100141.44
2022-10-15T15:45:22.818Z,100162.38
2022-10-15T15:47:27.465Z,100156.28
2022-10-15T15:49:30.247Z,100145.72
2022-10-15T15:51:33.148Z,100158.78
2022-10-15T15:53:36.011Z,100159.69
2022-10-15T15:55:41.020Z,100158.75
2022-10-15T15:57:43.312Z,100163.06
2022-10-15T15:59:45.856Z,100151.66
2022-10-15T16:01:48.067Z,100156.88
2022-10-15T16:03:51.809Z,100156.81
2022-10-15T16:05:54.298Z,100160.25
2022-10-15T16:07:56.786Z,100169.78
2022-10-15T16:09:59.042Z,100166.19
2022-10-15T16:12:02.002Z,100173.09
2022-10-15T16:14:09.067Z,100170.47
2022-10-15T16:16:11.882Z,100159.03
2022-10-15T16:18:13.808Z,100170.38
2022-10-15T16:20:17.816Z,100167.66
2022-10-15T16:22:19.918Z,100168.50
2022-10-15T16:24:22.352Z,100167.53
2022-10-15T16:26:24.714Z,100170.09
2022-10-15T16:28:27.000Z,100168.31
2022-10-15T16:30:29.725Z,100168.22
2022-10-15T16:32:32.001Z,100162.91
2022-10-15T16:34:34.061Z,100175.03
2022-10-15T16:36:36.447Z,100164.41
2022-10-15T16:38:41.975Z,100180.00
2022-10-15T16:40:46.545Z,100166.81
2022-10-15T16:42:50.060Z,100163.22
2022-10-15T16:44:52.838Z,100175.44
2022-10-15T16:46:57.641Z,100161.31
2022-10-15T16:49:00.209Z,100156.00
2022-10-15T16:51:09.009Z,100189.97
2022-10-15T16:53:11.860Z,100167.22
2022-10-15T16:55:16.969Z,100175.00
2022-10-15T16:57:19.292Z,100178.41
2022-10-15T16:59:21.322Z,100179.34
2022-10-15T17:01:29.238Z,100182.72
2022-10-15T17:03:33.732Z,100171.34
2022-10-15T17:05:36.024Z,100175.72
2022-10-15T17:07:41.429Z,100182.59
2022-10-15T17:09:45.194Z,100167.66
2022-10-15T17:11:48.096Z,100175.47
2022-10-15T17:13:58.186Z,100192.03
2022-10-15T17:16:20.868Z,100193.78
2022-10-15T17:18:24.746Z,100166.56
2022-10-15T17:20:34.657Z,100180.50
2022-10-15T17:22:37.753Z,100178.66
2022-10-15T17:24:40.270Z,100179.50
2022-10-15T17:26:52.065Z,100190.91
2022-10-15T17:28:56.967Z,100191.72
2022-10-15T17:31:08.423Z,100181.25
2022-10-15T17:33:13.345Z,100189.91
2022-10-15T17:35:18.616Z,100184.59
2022-10-15T17:37:23.198Z,100192.34
2022-10-15T17:39:25.458Z,100194.91
2022-10-15T17:41:30.093Z,100177.41
2022-10-15T17:43:37.631Z,100187.88
2022-10-15T17:45:42.635Z,100194.88
2022-10-15T17:47:45.051Z,100178.97
2022-10-15T17:49:47.857Z,100192.97
2022-10-15T17:51:50.140Z,100196.28
2022-10-15T17:53:56.363Z,100205.09
2022-10-15T17:55:59.506Z,100206.84
2022-10-15T17:58:01.755Z,100198.94
2022-10-15T18:00:04.727Z,100212.00
2022-10-15T18:02:14.971Z,100217.13
2022-10-15T18:04:23.635Z,100213.59
2022-10-15T18:06:27.002Z,100212.63
2022-10-15T18:08:29.577Z,100209.84
2022-10-15T18:10:32.065Z,100215.06
2022-10-15T18:12:34.143Z,100227.28
2022-10-15T18:14:37.131Z,100240.16
2022-10-15T18:16:41.774Z,100213.06
2022-10-15T18:18:57.542Z,100194.63
2022-10-15T18:21:14.921Z,100214.63
2022-10-15T18:23:19.510Z,100224.13
2022-10-15T18:25:22.172Z,100236.41
2022-10-15T18:27:24.903Z,100232.97
2022-10-15T18:29:30.060Z,100230.22
2022-10-15T18:31:32.326Z,100236.34
2022-10-15T18:33:40.037Z,100225.88
2022-10-15T18:35:44.983Z,100245.94
2022-10-15T18:37:47.341Z,100241.56
2022-10-15T18:39:50.099Z,100247.59
2022-10-15T18:41:52.677Z,100243.19
2022-10-15T18:44:04.038Z,100258.00
2022-10-15T18:46:07.601Z,100254.47
2022-10-15T18:48:10.548Z,100244.88
2022-10-15T18:50:13.012Z,100233.44
2022-10-15T18:52:28.053Z,100247.31
2022-10-15T18:54:39.021Z,100250.81
2022-10-15T18:56:41.722Z,100240.03
2022-10-15T18:58:44.060Z,100250.56
2022-10-15T19:00:46.448Z,100243.34
2022-10-15T19:02:59.991Z,100253.91
2022-10-15T19:05:02.227Z,100245.06
2022-10-15T19:07:05.802Z,100245.88
2022-10-15T19:09:13.721Z,100250.13
2022-10-15T19:11:17.200Z,100245.69
2022-10-15T19:13:19.694Z,100243.94
2022-10-15T19:15:21.783Z,100260.47
2022-10-15T19:17:24.986Z,100251.56
2022-10-15T19:19:28.996Z,100252.44
2022-10-15T19:21:32.634Z,100264.66
2022-10-15T19:23:35.107Z,100261.16
2022-10-15T19:25:41.937Z,100266.38
2022-10-15T19:27:44.432Z,100247.81
2022-10-15T19:29:46.596Z,100267.16
2022-10-15T19:31:49.927Z,100259.25
2022-10-15T19:33:58.250Z,100278.38
2022-10-15T19:36:01.193Z,100280.13
2022-10-15T19:38:03.917Z,100266.94
2022-10-15T19:40:08.486Z,100283.53
2022-10-15T19:42:10.660Z,100281.56
2022-10-15T19:44:14.603Z,100295.50
2022-10-15T19:46:17.132Z,100294.44
2022-10-15T19:48:23.085Z,100287.44
2022-10-15T19:50:25.296Z,100291.84
2022-10-15T19:52:33.674Z,100295.22
2022-10-15T19:54:36.284Z,100284.69
2022-10-15T19:56:38.354Z,100301.16
2022-10-15T19:58:43.670Z,100299.28
2022-10-15T20:00:49.452Z,100283.44
2022-10-15T20:02:52.033Z,100304.34
2022-10-15T20:04:54.143Z,100302.63
2022-10-15T20:06:56.375Z,100289.38
2022-10-15T20:08:59.153Z,100291.88
2022-10-15T20:11:01.323Z,100309.38
2022-10-15T20:13:03.517Z,100311.84
2022-10-15T20:15:06.456Z,100277.75
2022-10-15T20:17:08.637Z,100294.34
2022-10-15T20:19:12.627Z,100300.28
2022-10-15T20:21:17.040Z,100304.59
2022-10-15T20:23:19.911Z,100297.50
2022-10-15T20:25:22.080Z,100317.63
2022-10-15T20:27:24.210Z,100313.22
2022-10-15T20:29:27.341Z,100317.56
2022-10-15T20:31:33.060Z,100322.66
2022-10-15T20:33:38.999Z,100318.22
2022-10-15T20:35:42.362Z,100295.31
2022-10-15T20:37:44.395Z,100316.38
2022-10-15T20:39:46.818Z,100319.88
2022-10-15T20:41:49.625Z,100326.88
2022-10-15T20:43:55.054Z,100332.16
2022-10-15T20:45:57.504Z,100328.69
2022-10-15T20:47:59.852Z,100337.25
2022-10-15T20:50:07.475Z,100330.19
2022-10-15T20:52:09.943Z,100323.94
2022-10-15T20:54:13.410Z,100330.00
2022-10-15T20:56:15.733Z,100323.00
2022-10-15T20:58:17.787Z,100337.91
2022-10-15T21:00:19.930Z,100336.88
2022-10-15T21:02:21.967Z,100345.63
2022-10-15T21:04:23.999Z,100320.06
2022-10-15T21:06:26.278Z,100345.56
2022-10-15T21:08:28.797Z,100338.56
2022-10-15T21:10:30.941Z,100342.09
2022-10-15T21:12:33.125Z,100339.41
2022-10-15T21:14:35.296Z,100343.81
2022-10-15T21:16:37.517Z,100327.19
2022-10-15T21:18:39.940Z,100342.09
2022-10-15T21:20:42.586Z,100334.28
2022-10-15T21:22:47.070Z,100338.50
2022-10-15T21:24:49.770Z,100348.09
2022-10-15T21:26:51.872Z,100335.00
2022-10-15T21:28:59.025Z,100347.19
2022-10-15T21:31:05.941Z,100346.34
2022-10-15T21:33:08.062Z,100329.63
2022-10-15T21:35:11.017Z,100324.28
2022-10-15T21:37:13.167Z,100326.91
2022-10-15T21:39:16.413Z,100349.53
2022-10-15T21:41:18.640Z,100353.91
2022-10-15T21:43:20.826Z,100345.88
2022-10-15T21:45:22.993Z,100359.88
2022-10-15T21:47:25.680Z,100364.97
2022-10-15T21:49:28.103Z,100363.03
2022-10-15T21:51:33.640Z,100359.50
2022-10-15T21:53:37.516Z,100359.50
2022-10-15T21:55:40.107Z,100355.97
2022-10-15T21:57:43.161Z,100355.13
2022-10-15T21:59:45.264Z,100361.16
2022-10-15T22:01:50.485Z,100350.53
2022-10-15T22:03:57.682Z,100361.88
2022-10-15T22:06:00.863Z,100343.28
2022-10-15T22:08:02.931Z,100359.94
2022-10-15T22:10:05.475Z,100347.69
2022-10-15T22:12:07.759Z,100345.75
2022-10-15T22:14:12.604Z,100368.44
2022-10-15T22:16:16.562Z,100350.09
2022-10-15T22:18:18.807Z,100365.00
2022-10-15T22:20:24.055Z,100367.56
2022-10-15T22:22:26.541Z,100358.72
2022-10-15T22:24:29.677Z,100366.50
2022-10-15T22:26:38.321Z,100369.09
2022-10-15T22:28:41.498Z,100367.38
2022-10-15T22:30:44.312Z,100367.28
2022-10-15T22:32:46.422Z,100368.03
2022-10-15T22:34:48.630Z,100363.63
2022-10-15T22:36:51.942Z,100365.31
2022-10-15T22:38:56.782Z,100376.66
2022-10-15T22:40:59.728Z,100363.38
2022-10-15T22:43:03.752Z,100358.13
2022-10-15T22:45:06.796Z,100363.38
2022-10-15T22:47:09.690Z,100361.41
2022-10-15T22:49:13.025Z,100371.06
2022-10-15T22:51:16.070Z,100373.72
2022-10-15T22:53:18.662Z,100381.56
2022-10-15T22:55:20.802Z,100370.94
2022-10-15T22:57:23.300Z,100371.78
2022-10-15T22:59:25.466Z,100372.47
2022-10-15T23:01:30.120Z,100382.13
2022-10-15T23:03:32.404Z,100367.03
2022-10-15T23:05:34.528Z,100389.69
2022-10-15T23:07:38.295Z,100385.13
2022-10-15T23:09:40.659Z,100391.38
2022-10-15T23:11:42.945Z,100369.41
2022-10-15T23:13:45.957Z,100393.91
2022-10-15T23:15:47.927Z,100386.78
2022-10-15T23:17:52.557Z,100377.81
2022-10-15T23:19:54.614Z,100383.75
2022-10-15T23:22:00.309Z,100388.19
2022-10-15T23:24:04.196Z,100387.19
2022-10-15T23:26:06.573Z,100393.41
2022-10-15T23:28:09.682Z,100390.75
2022-10-15T23:30:24.604Z,100388.78
2022-10-15T23:32:27.307Z,100405.28
2022-10-15T23:34:29.513Z,100391.16
2022-10-15T23:36:33.625Z,100387.66
2022-10-15T23:38:35.729Z,100394.59
2022-10-15T23:40:37.851Z,100395.56
2022-10-15T23:42:40.407Z,100404.25
2022-10-15T23:44:43.017Z,100410.25
2022-10-15T23:46:45.477Z,100407.69
2022-10-15T23:48:47.997Z,100397.94
2022-10-15T23:50:50.206Z,100402.34
2022-10-15T23:52:52.835Z,100383.72
2022-10-15T23:54:54.900Z,100409.06
2022-10-15T23:56:57.126Z,100414.31
2022-10-15T23:59:01.298Z,100401.16
